UKDE/OZH METAR and TAF weather

Enter ICAO airport designator
Station Type Date Time Source
UKDE METAR 2020/09/22 23:00 UTC NOAA

UKDE 222300Z 04002MPS CAVOK 11/M01 Q1021 R02R/090070 NOSIG


Station Type Date Time Source
UKDE Decoded METAR 2020/09/22 23:00 UTC NOAA

Zaporizhzhia / Mokraya, Ukraine (UKDE) 47-52-02N 035-18-59E
Sep 22, 2020 - 07:00 PM EDT / 2020.09.22 2300 UTC
Wind: from the NE (040 degrees) at 4 MPH (4 KT):0
Visibility: greater than 7 mile(s):0
Temperature: 51 F (11 C)
Dew Point: 30 F (-1 C)
Relative Humidity: 43%
Pressure (altimeter): 30.15 in. Hg (1021 hPa)
ob: UKDE 222300Z 04002MPS CAVOK 11/M01 Q1021 R02R/090070 NOSIG
cycle: 23

Station Type Date Time Source
UKDE TAF 2020/06/03 15:15 UTC NOAA

TAF
AMD TAF
AMD UKDE 031510Z 0315/0524 21007MPS 9999 BKN030CB
TEMPO 0315/0318 VRB15G20MPS 0300 +TSRAGR SQ BKN007 BKN013CB

Example: see airport list